sensor_id;sensor_type;location;lat;lon;timestamp;P1;durP1;ratioP1;P2;durP2;ratioP2
34711;SDS011;20941;42.408;25.634;2023-07-31T00:01:22;16.15;;;11.30;;
34711;SDS011;20941;42.408;25.634;2023-07-31T00:03:49;20.35;;;10.75;;
34711;SDS011;20941;42.408;25.634;2023-07-31T00:06:14;26.77;;;16.00;;
34711;SDS011;20941;42.408;25.634;2023-07-31T00:08:39;12.60;;;6.35;;
34711;SDS011;20941;42.408;25.634;2023-07-31T00:11:05;6.53;;;2.90;;
34711;SDS011;20941;42.408;25.634;2023-07-31T00:13:30;6.82;;;2.50;;
34711;SDS011;20941;42.408;25.634;2023-07-31T00:15:55;5.07;;;2.50;;
34711;SDS011;20941;42.408;25.634;2023-07-31T00:18:21;6.70;;;2.70;;
34711;SDS011;20941;42.408;25.634;2023-07-31T00:20:46;4.97;;;2.53;;
34711;SDS011;20941;42.408;25.634;2023-07-31T00:23:11;9.13;;;3.13;;
34711;SDS011;20941;42.408;25.634;2023-07-31T00:25:37;6.90;;;3.03;;
34711;SDS011;20941;42.408;25.634;2023-07-31T00:28:02;5.32;;;2.45;;
34711;SDS011;20941;42.408;25.634;2023-07-31T00:30:27;8.38;;;2.95;;
34711;SDS011;20941;42.408;25.634;2023-07-31T00:32:53;5.72;;;2.90;;
34711;SDS011;20941;42.408;25.634;2023-07-31T00:35:18;11.15;;;3.63;;
34711;SDS011;20941;42.408;25.634;2023-07-31T00:37:43;12.77;;;3.33;;
34711;SDS011;20941;42.408;25.634;2023-07-31T00:40:09;14.35;;;3.80;;
34711;SDS011;20941;42.408;25.634;2023-07-31T00:42:34;9.88;;;3.03;;
34711;SDS011;20941;42.408;25.634;2023-07-31T00:44:59;9.23;;;3.25;;
34711;SDS011;20941;42.408;25.634;2023-07-31T00:47:25;7.38;;;2.90;;
34711;SDS011;20941;42.408;25.634;2023-07-31T00:49:50;8.23;;;3.40;;
34711;SDS011;20941;42.408;25.634;2023-07-31T00:52:16;8.98;;;3.42;;
34711;SDS011;20941;42.408;25.634;2023-07-31T00:54:42;9.05;;;3.15;;
34711;SDS011;20941;42.408;25.634;2023-07-31T00:57:07;8.75;;;3.08;;
34711;SDS011;20941;42.408;25.634;2023-07-31T00:59:33;9.68;;;2.92;;
34711;SDS011;20941;42.408;25.634;2023-07-31T01:01:58;10.43;;;3.92;;
34711;SDS011;20941;42.408;25.634;2023-07-31T01:04:24;5.82;;;2.72;;
34711;SDS011;20941;42.408;25.634;2023-07-31T01:09:20;9.07;;;3.65;;
34711;SDS011;20941;42.408;25.634;2023-07-31T01:11:52;9.90;;;3.70;;
34711;SDS011;20941;42.408;25.634;2023-07-31T01:14:18;8.23;;;3.55;;
34711;SDS011;20941;42.408;25.634;2023-07-31T01:16:43;16.20;;;4.40;;
34711;SDS011;20941;42.408;25.634;2023-07-31T01:19:08;9.75;;;3.35;;
34711;SDS011;20941;42.408;25.634;2023-07-31T01:26:41;6.40;;;2.75;;
34711;SDS011;20941;42.408;25.634;2023-07-31T01:31:34;11.10;;;3.45;;
34711;SDS011;20941;42.408;25.634;2023-07-31T01:34:00;9.75;;;3.35;;
34711;SDS011;20941;42.408;25.634;2023-07-31T01:36:26;10.20;;;3.15;;
34711;SDS011;20941;42.408;25.634;2023-07-31T01:38:52;7.50;;;3.58;;
34711;SDS011;20941;42.408;25.634;2023-07-31T01:41:17;6.95;;;3.25;;
34711;SDS011;20941;42.408;25.634;2023-07-31T01:43:43;13.27;;;3.53;;
34711;SDS011;20941;42.408;25.634;2023-07-31T01:46:09;11.57;;;4.03;;
34711;SDS011;20941;42.408;25.634;2023-07-31T01:48:34;7.60;;;3.33;;
34711;SDS011;20941;42.408;25.634;2023-07-31T01:51:01;7.78;;;3.42;;
34711;SDS011;20941;42.408;25.634;2023-07-31T01:53:27;6.45;;;2.83;;
34711;SDS011;20941;42.408;25.634;2023-07-31T01:55:53;9.10;;;3.05;;
34711;SDS011;20941;42.408;25.634;2023-07-31T01:58:18;6.15;;;2.78;;
34711;SDS011;20941;42.408;25.634;2023-07-31T02:00:43;7.18;;;3.40;;
34711;SDS011;20941;42.408;25.634;2023-07-31T02:03:09;7.45;;;3.25;;
34711;SDS011;20941;42.408;25.634;2023-07-31T02:05:34;7.43;;;3.17;;
34711;SDS011;20941;42.408;25.634;2023-07-31T02:07:59;8.60;;;3.47;;
34711;SDS011;20941;42.408;25.634;2023-07-31T02:10:25;6.40;;;2.92;;
34711;SDS011;20941;42.408;25.634;2023-07-31T02:12:50;8.95;;;3.60;;
34711;SDS011;20941;42.408;25.634;2023-07-31T02:15:15;7.43;;;3.28;;
34711;SDS011;20941;42.408;25.634;2023-07-31T02:17:41;6.43;;;2.88;;
34711;SDS011;20941;42.408;25.634;2023-07-31T02:20:06;6.28;;;2.70;;
34711;SDS011;20941;42.408;25.634;2023-07-31T02:22:32;6.90;;;2.33;;
34711;SDS011;20941;42.408;25.634;2023-07-31T02:24:57;7.55;;;3.10;;
34711;SDS011;20941;42.408;25.634;2023-07-31T02:27:22;7.07;;;2.92;;
34711;SDS011;20941;42.408;25.634;2023-07-31T02:29:52;7.25;;;3.08;;
34711;SDS011;20941;42.408;25.634;2023-07-31T02:32:17;8.73;;;3.55;;
34711;SDS011;20941;42.408;25.634;2023-07-31T02:34:42;8.65;;;2.75;;
34711;SDS011;20941;42.408;25.634;2023-07-31T02:37:08;6.30;;;2.95;;
34711;SDS011;20941;42.408;25.634;2023-07-31T02:39:33;7.07;;;2.80;;
34711;SDS011;20941;42.408;25.634;2023-07-31T02:41:59;9.52;;;3.45;;
34711;SDS011;20941;42.408;25.634;2023-07-31T02:44:25;6.03;;;2.90;;
34711;SDS011;20941;42.408;25.634;2023-07-31T02:46:50;8.82;;;3.55;;
34711;SDS011;20941;42.408;25.634;2023-07-31T02:49:16;7.72;;;3.20;;
34711;SDS011;20941;42.408;25.634;2023-07-31T02:51:41;7.72;;;3.42;;
34711;SDS011;20941;42.408;25.634;2023-07-31T02:54:06;6.95;;;3.05;;
34711;SDS011;20941;42.408;25.634;2023-07-31T02:56:32;5.80;;;2.85;;
34711;SDS011;20941;42.408;25.634;2023-07-31T02:58:57;6.55;;;2.60;;
34711;SDS011;20941;42.408;25.634;2023-07-31T03:01:22;9.60;;;4.25;;
34711;SDS011;20941;42.408;25.634;2023-07-31T03:03:48;7.45;;;3.50;;
34711;SDS011;20941;42.408;25.634;2023-07-31T03:06:13;12.68;;;4.85;;
34711;SDS011;20941;42.408;25.634;2023-07-31T03:08:38;8.52;;;2.95;;
34711;SDS011;20941;42.408;25.634;2023-07-31T03:11:04;11.32;;;3.90;;
34711;SDS011;20941;42.408;25.634;2023-07-31T03:13:29;10.27;;;3.88;;
34711;SDS011;20941;42.408;25.634;2023-07-31T03:15:54;14.98;;;4.78;;
34711;SDS011;20941;42.408;25.634;2023-07-31T03:18:19;6.95;;;3.30;;
34711;SDS011;20941;42.408;25.634;2023-07-31T03:20:45;11.35;;;3.85;;
34711;SDS011;20941;42.408;25.634;2023-07-31T03:23:10;15.43;;;5.05;;
34711;SDS011;20941;42.408;25.634;2023-07-31T03:25:36;7.18;;;3.45;;
34711;SDS011;20941;42.408;25.634;2023-07-31T03:28:01;10.07;;;4.05;;
34711;SDS011;20941;42.408;25.634;2023-07-31T03:30:26;15.20;;;3.88;;
34711;SDS011;20941;42.408;25.634;2023-07-31T03:32:52;12.52;;;3.65;;
34711;SDS011;20941;42.408;25.634;2023-07-31T03:35:17;11.18;;;3.78;;
34711;SDS011;20941;42.408;25.634;2023-07-31T03:37:42;12.27;;;4.40;;
34711;SDS011;20941;42.408;25.634;2023-07-31T03:40:08;9.65;;;4.20;;
34711;SDS011;20941;42.408;25.634;2023-07-31T03:42:33;10.93;;;4.30;;
34711;SDS011;20941;42.408;25.634;2023-07-31T03:44:59;14.48;;;4.45;;
34711;SDS011;20941;42.408;25.634;2023-07-31T03:47:24;9.93;;;3.80;;
34711;SDS011;20941;42.408;25.634;2023-07-31T03:49:49;9.40;;;3.75;;
34711;SDS011;20941;42.408;25.634;2023-07-31T03:52:15;11.00;;;4.47;;
34711;SDS011;20941;42.408;25.634;2023-07-31T03:54:40;10.50;;;3.70;;
34711;SDS011;20941;42.408;25.634;2023-07-31T03:57:05;12.13;;;3.97;;
34711;SDS011;20941;42.408;25.634;2023-07-31T03:59:31;8.32;;;3.83;;
34711;SDS011;20941;42.408;25.634;2023-07-31T04:01:56;8.85;;;3.38;;
34711;SDS011;20941;42.408;25.634;2023-07-31T04:04:21;9.55;;;3.67;;
34711;SDS011;20941;42.408;25.634;2023-07-31T04:06:47;11.55;;;3.75;;
34711;SDS011;20941;42.408;25.634;2023-07-31T04:09:12;11.82;;;4.25;;
34711;SDS011;20941;42.408;25.634;2023-07-31T04:11:37;8.63;;;3.80;;
34711;SDS011;20941;42.408;25.634;2023-07-31T04:14:04;9.65;;;3.40;;
34711;SDS011;20941;42.408;25.634;2023-07-31T04:16:29;12.65;;;4.30;;
34711;SDS011;20941;42.408;25.634;2023-07-31T04:18:55;7.72;;;3.55;;
34711;SDS011;20941;42.408;25.634;2023-07-31T04:21:20;6.18;;;3.40;;
34711;SDS011;20941;42.408;25.634;2023-07-31T04:23:45;4.82;;;3.05;;
34711;SDS011;20941;42.408;25.634;2023-07-31T04:26:11;10.50;;;3.72;;
34711;SDS011;20941;42.408;25.634;2023-07-31T04:28:36;9.25;;;3.60;;
34711;SDS011;20941;42.408;25.634;2023-07-31T04:31:01;11.40;;;5.00;;
34711;SDS011;20941;42.408;25.634;2023-07-31T04:33:27;9.93;;;3.47;;
34711;SDS011;20941;42.408;25.634;2023-07-31T04:35:52;6.78;;;3.35;;
34711;SDS011;20941;42.408;25.634;2023-07-31T04:38:18;7.28;;;3.33;;
34711;SDS011;20941;42.408;25.634;2023-07-31T04:40:44;11.00;;;3.80;;
34711;SDS011;20941;42.408;25.634;2023-07-31T04:43:09;6.70;;;3.38;;
34711;SDS011;20941;42.408;25.634;2023-07-31T04:45:35;6.60;;;3.30;;
34711;SDS011;20941;42.408;25.634;2023-07-31T04:48:00;7.30;;;2.83;;
34711;SDS011;20941;42.408;25.634;2023-07-31T04:50:25;8.07;;;3.22;;
34711;SDS011;20941;42.408;25.634;2023-07-31T04:52:51;7.47;;;3.70;;
34711;SDS011;20941;42.408;25.634;2023-07-31T04:55:16;7.78;;;3.17;;
34711;SDS011;20941;42.408;25.634;2023-07-31T04:57:42;11.40;;;3.40;;
34711;SDS011;20941;42.408;25.634;2023-07-31T05:00:07;6.95;;;3.42;;
34711;SDS011;20941;42.408;25.634;2023-07-31T05:02:33;11.77;;;3.90;;
34711;SDS011;20941;42.408;25.634;2023-07-31T05:04:58;10.20;;;4.03;;
34711;SDS011;20941;42.408;25.634;2023-07-31T05:07:23;15.02;;;3.95;;
34711;SDS011;20941;42.408;25.634;2023-07-31T05:09:49;17.48;;;4.57;;
34711;SDS011;20941;42.408;25.634;2023-07-31T05:12:14;13.60;;;4.95;;
34711;SDS011;20941;42.408;25.634;2023-07-31T05:14:40;13.93;;;4.78;;
34711;SDS011;20941;42.408;25.634;2023-07-31T05:17:05;11.45;;;4.25;;
34711;SDS011;20941;42.408;25.634;2023-07-31T05:19:30;10.55;;;4.38;;
34711;SDS011;20941;42.408;25.634;2023-07-31T05:21:56;16.27;;;5.97;;
34711;SDS011;20941;42.408;25.634;2023-07-31T05:24:21;8.00;;;4.32;;
34711;SDS011;20941;42.408;25.634;2023-07-31T05:26:46;18.27;;;5.10;;
34711;SDS011;20941;42.408;25.634;2023-07-31T05:29:12;17.35;;;5.75;;
34711;SDS011;20941;42.408;25.634;2023-07-31T05:31:37;16.65;;;4.65;;
34711;SDS011;20941;42.408;25.634;2023-07-31T05:34:03;14.95;;;4.63;;
34711;SDS011;20941;42.408;25.634;2023-07-31T05:36:29;9.48;;;3.85;;
34711;SDS011;20941;42.408;25.634;2023-07-31T05:38:54;13.98;;;4.72;;
34711;SDS011;20941;42.408;25.634;2023-07-31T05:41:19;9.45;;;4.00;;
34711;SDS011;20941;42.408;25.634;2023-07-31T05:43:45;9.52;;;3.83;;
34711;SDS011;20941;42.408;25.634;2023-07-31T05:46:10;16.20;;;6.65;;
34711;SDS011;20941;42.408;25.634;2023-07-31T05:48:37;19.67;;;7.70;;
34711;SDS011;20941;42.408;25.634;2023-07-31T05:51:02;16.67;;;6.18;;
34711;SDS011;20941;42.408;25.634;2023-07-31T05:53:27;18.52;;;8.23;;
34711;SDS011;20941;42.408;25.634;2023-07-31T05:55:53;12.70;;;6.70;;
34711;SDS011;20941;42.408;25.634;2023-07-31T05:58:18;20.92;;;7.13;;
34711;SDS011;20941;42.408;25.634;2023-07-31T06:00:43;17.38;;;6.93;;
34711;SDS011;20941;42.408;25.634;2023-07-31T06:03:09;21.92;;;7.40;;
34711;SDS011;20941;42.408;25.634;2023-07-31T06:05:34;15.27;;;6.65;;
34711;SDS011;20941;42.408;25.634;2023-07-31T06:07:59;26.75;;;7.80;;
34711;SDS011;20941;42.408;25.634;2023-07-31T06:10:25;23.50;;;7.75;;
34711;SDS011;20941;42.408;25.634;2023-07-31T06:12:51;32.60;;;9.45;;
34711;SDS011;20941;42.408;25.634;2023-07-31T06:15:16;34.33;;;8.57;;
34711;SDS011;20941;42.408;25.634;2023-07-31T06:17:44;29.02;;;9.45;;
34711;SDS011;20941;42.408;25.634;2023-07-31T06:20:09;32.95;;;10.40;;
34711;SDS011;20941;42.408;25.634;2023-07-31T06:22:35;34.97;;;10.63;;
34711;SDS011;20941;42.408;25.634;2023-07-31T06:25:00;31.27;;;12.30;;
34711;SDS011;20941;42.408;25.634;2023-07-31T06:27:25;30.55;;;14.93;;
34711;SDS011;20941;42.408;25.634;2023-07-31T06:29:51;29.13;;;13.40;;
34711;SDS011;20941;42.408;25.634;2023-07-31T06:32:16;37.42;;;16.65;;
34711;SDS011;20941;42.408;25.634;2023-07-31T06:34:42;30.95;;;16.08;;
34711;SDS011;20941;42.408;25.634;2023-07-31T06:37:07;24.80;;;13.57;;
34711;SDS011;20941;42.408;25.634;2023-07-31T06:39:32;20.50;;;11.52;;
34711;SDS011;20941;42.408;25.634;2023-07-31T06:41:58;38.95;;;18.50;;
34711;SDS011;20941;42.408;25.634;2023-07-31T06:44:23;20.70;;;10.57;;
34711;SDS011;20941;42.408;25.634;2023-07-31T06:46:48;24.90;;;10.43;;
34711;SDS011;20941;42.408;25.634;2023-07-31T06:49:14;18.80;;;9.85;;
34711;SDS011;20941;42.408;25.634;2023-07-31T06:51:42;17.42;;;9.48;;
34711;SDS011;20941;42.408;25.634;2023-07-31T06:54:09;19.35;;;8.18;;
34711;SDS011;20941;42.408;25.634;2023-07-31T06:56:34;16.05;;;7.68;;
34711;SDS011;20941;42.408;25.634;2023-07-31T06:59:00;20.27;;;8.68;;
34711;SDS011;20941;42.408;25.634;2023-07-31T07:01:25;19.55;;;10.55;;
34711;SDS011;20941;42.408;25.634;2023-07-31T07:03:51;17.42;;;9.02;;
34711;SDS011;20941;42.408;25.634;2023-07-31T07:06:17;17.30;;;10.50;;
34711;SDS011;20941;42.408;25.634;2023-07-31T07:08:42;23.13;;;10.55;;
34711;SDS011;20941;42.408;25.634;2023-07-31T07:11:08;17.85;;;9.23;;
34711;SDS011;20941;42.408;25.634;2023-07-31T07:13:33;16.60;;;8.60;;
34711;SDS011;20941;42.408;25.634;2023-07-31T07:15:59;20.02;;;10.00;;
34711;SDS011;20941;42.408;25.634;2023-07-31T07:18:24;22.15;;;11.20;;
34711;SDS011;20941;42.408;25.634;2023-07-31T07:20:50;44.75;;;17.13;;
34711;SDS011;20941;42.408;25.634;2023-07-31T07:23:15;59.75;;;27.35;;
34711;SDS011;20941;42.408;25.634;2023-07-31T07:25:41;59.38;;;23.30;;
34711;SDS011;20941;42.408;25.634;2023-07-31T07:28:06;69.57;;;42.72;;
34711;SDS011;20941;42.408;25.634;2023-07-31T07:30:32;61.90;;;36.70;;
34711;SDS011;20941;42.408;25.634;2023-07-31T07:32:57;34.42;;;19.50;;
34711;SDS011;20941;42.408;25.634;2023-07-31T07:35:22;24.92;;;14.63;;
34711;SDS011;20941;42.408;25.634;2023-07-31T07:37:48;18.95;;;10.23;;
34711;SDS011;20941;42.408;25.634;2023-07-31T07:40:15;18.63;;;11.05;;
34711;SDS011;20941;42.408;25.634;2023-07-31T07:42:40;13.20;;;9.07;;
34711;SDS011;20941;42.408;25.634;2023-07-31T07:45:05;15.05;;;9.85;;
34711;SDS011;20941;42.408;25.634;2023-07-31T07:47:31;20.08;;;11.95;;
34711;SDS011;20941;42.408;25.634;2023-07-31T07:49:56;18.15;;;10.27;;
34711;SDS011;20941;42.408;25.634;2023-07-31T07:52:22;14.90;;;8.57;;
34711;SDS011;20941;42.408;25.634;2023-07-31T07:54:47;23.35;;;10.45;;
34711;SDS011;20941;42.408;25.634;2023-07-31T07:57:12;13.52;;;9.32;;
34711;SDS011;20941;42.408;25.634;2023-07-31T07:59:37;19.38;;;10.73;;
34711;SDS011;20941;42.408;25.634;2023-07-31T08:02:03;17.80;;;10.82;;
34711;SDS011;20941;42.408;25.634;2023-07-31T08:04:28;19.20;;;10.45;;
34711;SDS011;20941;42.408;25.634;2023-07-31T08:06:54;17.95;;;10.20;;
34711;SDS011;20941;42.408;25.634;2023-07-31T08:09:19;19.35;;;12.20;;
34711;SDS011;20941;42.408;25.634;2023-07-31T08:11:44;20.33;;;11.25;;
34711;SDS011;20941;42.408;25.634;2023-07-31T08:14:09;22.90;;;12.77;;
34711;SDS011;20941;42.408;25.634;2023-07-31T08:16:35;17.52;;;12.25;;
34711;SDS011;20941;42.408;25.634;2023-07-31T08:19:00;25.05;;;13.27;;
34711;SDS011;20941;42.408;25.634;2023-07-31T08:21:26;17.98;;;11.02;;
34711;SDS011;20941;42.408;25.634;2023-07-31T08:23:51;16.08;;;9.82;;
34711;SDS011;20941;42.408;25.634;2023-07-31T08:26:17;16.73;;;11.30;;
34711;SDS011;20941;42.408;25.634;2023-07-31T08:28:42;21.70;;;11.65;;
34711;SDS011;20941;42.408;25.634;2023-07-31T08:31:07;17.20;;;11.68;;
34711;SDS011;20941;42.408;25.634;2023-07-31T08:33:33;22.17;;;11.45;;
34711;SDS011;20941;42.408;25.634;2023-07-31T08:35:58;16.75;;;10.20;;
34711;SDS011;20941;42.408;25.634;2023-07-31T08:38:25;17.55;;;10.50;;
34711;SDS011;20941;42.408;25.634;2023-07-31T08:40:51;11.75;;;9.35;;
34711;SDS011;20941;42.408;25.634;2023-07-31T08:43:16;19.30;;;11.18;;
34711;SDS011;20941;42.408;25.634;2023-07-31T08:45:41;15.55;;;9.70;;
34711;SDS011;20941;42.408;25.634;2023-07-31T08:48:07;20.08;;;11.00;;
34711;SDS011;20941;42.408;25.634;2023-07-31T08:50:33;16.13;;;10.23;;
34711;SDS011;20941;42.408;25.634;2023-07-31T08:52:58;26.15;;;12.18;;
34711;SDS011;20941;42.408;25.634;2023-07-31T08:55:23;16.50;;;10.75;;
34711;SDS011;20941;42.408;25.634;2023-07-31T08:57:52;22.52;;;10.93;;
34711;SDS011;20941;42.408;25.634;2023-07-31T09:00:19;17.63;;;10.57;;
34711;SDS011;20941;42.408;25.634;2023-07-31T09:05:11;16.27;;;10.55;;
34711;SDS011;20941;42.408;25.634;2023-07-31T09:07:37;20.05;;;11.05;;
34711;SDS011;20941;42.408;25.634;2023-07-31T09:10:03;17.83;;;10.80;;
34711;SDS011;20941;42.408;25.634;2023-07-31T09:12:29;18.50;;;10.68;;
34711;SDS011;20941;42.408;25.634;2023-07-31T09:14:55;17.85;;;10.50;;
34711;SDS011;20941;42.408;25.634;2023-07-31T09:17:31;17.98;;;10.60;;
34711;SDS011;20941;42.408;25.634;2023-07-31T09:19:56;18.25;;;10.60;;
34711;SDS011;20941;42.408;25.634;2023-07-31T09:22:32;18.80;;;10.25;;
34711;SDS011;20941;42.408;25.634;2023-07-31T09:25:03;24.13;;;11.65;;
34711;SDS011;20941;42.408;25.634;2023-07-31T09:27:36;18.15;;;9.82;;
34711;SDS011;20941;42.408;25.634;2023-07-31T09:30:10;20.88;;;11.18;;
34711;SDS011;20941;42.408;25.634;2023-07-31T09:32:35;17.33;;;10.93;;
34711;SDS011;20941;42.408;25.634;2023-07-31T09:35:12;23.73;;;10.93;;
34711;SDS011;20941;42.408;25.634;2023-07-31T09:37:38;19.05;;;11.85;;
34711;SDS011;20941;42.408;25.634;2023-07-31T09:40:03;18.50;;;10.57;;
34711;SDS011;20941;42.408;25.634;2023-07-31T09:42:29;18.85;;;11.10;;
34711;SDS011;20941;42.408;25.634;2023-07-31T09:45:01;15.23;;;10.65;;
34711;SDS011;20941;42.408;25.634;2023-07-31T09:47:31;27.25;;;12.18;;
34711;SDS011;20941;42.408;25.634;2023-07-31T09:49:57;21.52;;;11.73;;
34711;SDS011;20941;42.408;25.634;2023-07-31T09:52:22;22.67;;;11.85;;
34711;SDS011;20941;42.408;25.634;2023-07-31T09:54:47;28.77;;;12.75;;
34711;SDS011;20941;42.408;25.634;2023-07-31T09:57:13;27.88;;;12.80;;
34711;SDS011;20941;42.408;25.634;2023-07-31T09:59:42;19.60;;;11.85;;
34711;SDS011;20941;42.408;25.634;2023-07-31T10:02:08;25.90;;;13.00;;
34711;SDS011;20941;42.408;25.634;2023-07-31T10:04:34;20.92;;;12.13;;
34711;SDS011;20941;42.408;25.634;2023-07-31T10:06:59;34.58;;;13.52;;
34711;SDS011;20941;42.408;25.634;2023-07-31T10:09:27;23.60;;;12.63;;
34711;SDS011;20941;42.408;25.634;2023-07-31T10:11:56;31.00;;;15.00;;
34711;SDS011;20941;42.408;25.634;2023-07-31T10:14:24;37.35;;;15.25;;
34711;SDS011;20941;42.408;25.634;2023-07-31T10:16:51;27.02;;;13.85;;
34711;SDS011;20941;42.408;25.634;2023-07-31T10:19:18;28.65;;;14.07;;
34711;SDS011;20941;42.408;25.634;2023-07-31T10:21:43;33.10;;;15.23;;
34711;SDS011;20941;42.408;25.634;2023-07-31T10:24:09;27.63;;;13.02;;
34711;SDS011;20941;42.408;25.634;2023-07-31T10:26:34;31.65;;;13.70;;
34711;SDS011;20941;42.408;25.634;2023-07-31T10:29:00;24.83;;;12.32;;
34711;SDS011;20941;42.408;25.634;2023-07-31T10:31:26;21.00;;;12.10;;
34711;SDS011;20941;42.408;25.634;2023-07-31T10:33:52;22.45;;;11.15;;
34711;SDS011;20941;42.408;25.634;2023-07-31T10:36:20;24.08;;;12.95;;
34711;SDS011;20941;42.408;25.634;2023-07-31T10:38:48;27.63;;;12.13;;
34711;SDS011;20941;42.408;25.634;2023-07-31T10:41:14;20.48;;;11.55;;
34711;SDS011;20941;42.408;25.634;2023-07-31T10:43:39;20.42;;;11.90;;
34711;SDS011;20941;42.408;25.634;2023-07-31T10:46:22;22.27;;;12.48;;
34711;SDS011;20941;42.408;25.634;2023-07-31T10:48:48;35.38;;;14.70;;
34711;SDS011;20941;42.408;25.634;2023-07-31T10:51:22;24.67;;;13.75;;
34711;SDS011;20941;42.408;25.634;2023-07-31T10:53:47;39.40;;;14.30;;
34711;SDS011;20941;42.408;25.634;2023-07-31T10:56:13;23.67;;;12.93;;
34711;SDS011;20941;42.408;25.634;2023-07-31T10:58:40;24.90;;;12.30;;
34711;SDS011;20941;42.408;25.634;2023-07-31T11:01:08;24.08;;;11.82;;
34711;SDS011;20941;42.408;25.634;2023-07-31T11:03:50;30.15;;;14.82;;
34711;SDS011;20941;42.408;25.634;2023-07-31T11:06:18;26.20;;;14.17;;
34711;SDS011;20941;42.408;25.634;2023-07-31T11:08:47;22.77;;;12.25;;
34711;SDS011;20941;42.408;25.634;2023-07-31T11:11:13;22.30;;;12.00;;
34711;SDS011;20941;42.408;25.634;2023-07-31T11:13:39;19.60;;;11.30;;
34711;SDS011;20941;42.408;25.634;2023-07-31T11:16:05;23.00;;;11.77;;
34711;SDS011;20941;42.408;25.634;2023-07-31T11:18:30;21.40;;;11.55;;
34711;SDS011;20941;42.408;25.634;2023-07-31T11:20:56;21.67;;;11.02;;
34711;SDS011;20941;42.408;25.634;2023-07-31T11:23:21;24.65;;;11.57;;
34711;SDS011;20941;42.408;25.634;2023-07-31T11:25:47;23.33;;;11.95;;
34711;SDS011;20941;42.408;25.634;2023-07-31T11:28:13;28.92;;;12.48;;
34711;SDS011;20941;42.408;25.634;2023-07-31T11:30:39;25.63;;;12.65;;
34711;SDS011;20941;42.408;25.634;2023-07-31T11:33:09;34.42;;;15.07;;
34711;SDS011;20941;42.408;25.634;2023-07-31T11:35:35;24.63;;;12.25;;
34711;SDS011;20941;42.408;25.634;2023-07-31T11:38:01;25.92;;;12.40;;
34711;SDS011;20941;42.408;25.634;2023-07-31T11:40:27;28.17;;;12.65;;
34711;SDS011;20941;42.408;25.634;2023-07-31T11:42:57;24.70;;;12.13;;
34711;SDS011;20941;42.408;25.634;2023-07-31T11:45:26;33.88;;;13.52;;
34711;SDS011;20941;42.408;25.634;2023-07-31T11:47:54;28.80;;;12.15;;
34711;SDS011;20941;42.408;25.634;2023-07-31T11:50:20;30.27;;;13.05;;
34711;SDS011;20941;42.408;25.634;2023-07-31T11:52:46;23.40;;;10.45;;
34711;SDS011;20941;42.408;25.634;2023-07-31T11:55:13;26.73;;;11.93;;
34711;SDS011;20941;42.408;25.634;2023-07-31T11:57:40;25.40;;;12.43;;
34711;SDS011;20941;42.408;25.634;2023-07-31T12:00:07;24.50;;;11.82;;
34711;SDS011;20941;42.408;25.634;2023-07-31T12:02:33;19.75;;;10.18;;
34711;SDS011;20941;42.408;25.634;2023-07-31T12:04:59;25.67;;;10.48;;
34711;SDS011;20941;42.408;25.634;2023-07-31T12:07:24;24.40;;;10.88;;
34711;SDS011;20941;42.408;25.634;2023-07-31T12:09:53;25.33;;;11.38;;
34711;SDS011;20941;42.408;25.634;2023-07-31T12:12:19;27.55;;;11.48;;
34711;SDS011;20941;42.408;25.634;2023-07-31T12:14:45;27.77;;;12.63;;
34711;SDS011;20941;42.408;25.634;2023-07-31T12:17:10;28.55;;;12.65;;
34711;SDS011;20941;42.408;25.634;2023-07-31T12:19:36;27.48;;;11.13;;
34711;SDS011;20941;42.408;25.634;2023-07-31T12:22:01;25.75;;;12.10;;
34711;SDS011;20941;42.408;25.634;2023-07-31T12:24:27;26.13;;;12.00;;
34711;SDS011;20941;42.408;25.634;2023-07-31T12:26:52;39.40;;;13.82;;
34711;SDS011;20941;42.408;25.634;2023-07-31T12:29:19;36.38;;;14.27;;
34711;SDS011;20941;42.408;25.634;2023-07-31T12:31:45;28.90;;;13.18;;
34711;SDS011;20941;42.408;25.634;2023-07-31T12:34:15;38.42;;;17.65;;
34711;SDS011;20941;42.408;25.634;2023-07-31T12:36:41;30.42;;;15.25;;
34711;SDS011;20941;42.408;25.634;2023-07-31T12:39:07;36.58;;;17.75;;
34711;SDS011;20941;42.408;25.634;2023-07-31T12:41:33;33.60;;;15.52;;
34711;SDS011;20941;42.408;25.634;2023-07-31T12:43:58;36.40;;;14.82;;
34711;SDS011;20941;42.408;25.634;2023-07-31T12:46:23;34.85;;;16.35;;
34711;SDS011;20941;42.408;25.634;2023-07-31T12:48:49;31.08;;;14.60;;
34711;SDS011;20941;42.408;25.634;2023-07-31T12:51:14;36.30;;;15.18;;
34711;SDS011;20941;42.408;25.634;2023-07-31T12:53:39;34.97;;;13.82;;
34711;SDS011;20941;42.408;25.634;2023-07-31T12:56:05;31.55;;;13.90;;
34711;SDS011;20941;42.408;25.634;2023-07-31T12:58:30;31.88;;;14.13;;
34711;SDS011;20941;42.408;25.634;2023-07-31T13:00:56;36.45;;;14.45;;
34711;SDS011;20941;42.408;25.634;2023-07-31T13:03:21;31.70;;;13.93;;
34711;SDS011;20941;42.408;25.634;2023-07-31T13:05:46;23.90;;;10.75;;
34711;SDS011;20941;42.408;25.634;2023-07-31T13:08:12;26.80;;;10.75;;
34711;SDS011;20941;42.408;25.634;2023-07-31T13:10:37;32.53;;;10.80;;
34711;SDS011;20941;42.408;25.634;2023-07-31T13:13:02;28.90;;;11.13;;
34711;SDS011;20941;42.408;25.634;2023-07-31T13:15:28;26.63;;;11.32;;
34711;SDS011;20941;42.408;25.634;2023-07-31T13:17:53;28.50;;;11.63;;
34711;SDS011;20941;42.408;25.634;2023-07-31T13:20:19;32.13;;;12.13;;
34711;SDS011;20941;42.408;25.634;2023-07-31T13:22:44;27.98;;;11.75;;
34711;SDS011;20941;42.408;25.634;2023-07-31T13:25:09;31.42;;;13.10;;
34711;SDS011;20941;42.408;25.634;2023-07-31T13:27:35;26.92;;;11.45;;
34711;SDS011;20941;42.408;25.634;2023-07-31T13:30:00;24.33;;;10.25;;
34711;SDS011;20941;42.408;25.634;2023-07-31T13:32:26;35.10;;;13.20;;
34711;SDS011;20941;42.408;25.634;2023-07-31T13:34:51;26.17;;;12.82;;
34711;SDS011;20941;42.408;25.634;2023-07-31T13:37:16;37.25;;;21.05;;
34711;SDS011;20941;42.408;25.634;2023-07-31T13:39:42;53.67;;;30.98;;
34711;SDS011;20941;42.408;25.634;2023-07-31T13:42:08;73.28;;;45.70;;
34711;SDS011;20941;42.408;25.634;2023-07-31T13:44:34;99.57;;;55.47;;
34711;SDS011;20941;42.408;25.634;2023-07-31T13:46:59;77.00;;;46.17;;
34711;SDS011;20941;42.408;25.634;2023-07-31T13:49:25;74.45;;;45.80;;
34711;SDS011;20941;42.408;25.634;2023-07-31T13:51:51;74.82;;;47.05;;
34711;SDS011;20941;42.408;25.634;2023-07-31T13:54:16;89.68;;;54.50;;
34711;SDS011;20941;42.408;25.634;2023-07-31T13:56:42;42.55;;;28.75;;
34711;SDS011;20941;42.408;25.634;2023-07-31T13:59:08;42.28;;;21.52;;
34711;SDS011;20941;42.408;25.634;2023-07-31T14:01:33;25.35;;;10.43;;
34711;SDS011;20941;42.408;25.634;2023-07-31T14:03:58;21.25;;;8.57;;
34711;SDS011;20941;42.408;25.634;2023-07-31T14:06:24;19.23;;;9.32;;
34711;SDS011;20941;42.408;25.634;2023-07-31T14:08:49;16.15;;;7.38;;
34711;SDS011;20941;42.408;25.634;2023-07-31T14:11:14;18.63;;;8.15;;
34711;SDS011;20941;42.408;25.634;2023-07-31T14:13:40;12.52;;;6.43;;
34711;SDS011;20941;42.408;25.634;2023-07-31T14:16:05;12.63;;;5.97;;
34711;SDS011;20941;42.408;25.634;2023-07-31T14:18:31;17.08;;;6.43;;
34711;SDS011;20941;42.408;25.634;2023-07-31T14:20:56;9.73;;;5.78;;
34711;SDS011;20941;42.408;25.634;2023-07-31T14:23:22;11.10;;;6.07;;